Time;durP1;ratioP1;P1;durP2;ratioP2;P2;SDS_P1;SDS_P2;PMS_P1;PMS_P2;Temp;Humidity;BMP_temperature;BMP_pressure;BME280_temperature;BME280_humidity;BME280_pressure;Samples;Min_cycle;Max_cycle;Signal;HPM_P1;HPM_P2
2022/06/30 00:00:11;;;;;;;5.80;5.30;;;19.00;99.90;;;;;;5056332;28;20215;-41
2022/06/30 00:02:38;;;;;;;6.70;6.03;;;19.00;99.90;;;;;;5072602;28;20248;-38
2022/06/30 00:05:05;;;;;;;7.82;5.45;;;18.90;99.90;;;;;;5077696;28;20179;-38
2022/06/30 00:07:31;;;;;;;6.95;5.72;;;18.90;99.90;;;;;;5101835;28;20172;-38
2022/06/30 00:09:57;;;;;;;6.20;5.60;;;18.90;99.90;;;;;;5072387;28;20181;-37
2022/06/30 00:12:23;;;;;;;8.35;5.40;;;18.90;99.90;;;;;;5072499;28;20196;-38
2022/06/30 00:14:48;;;;;;;7.18;5.72;;;18.90;99.90;;;;;;5055818;28;20200;-38
2022/06/30 00:17:14;;;;;;;9.05;6.03;;;18.90;99.90;;;;;;5055637;28;20208;-37
2022/06/30 00:19:41;;;;;;;8.10;6.32;;;18.90;99.90;;;;;;5090698;28;20179;-39
2022/06/30 00:22:07;;;;;;;9.48;6.22;;;18.90;99.90;;;;;;5055598;28;20177;-38
2022/06/30 00:24:34;;;;;;;11.15;5.93;;;18.90;99.90;;;;;;5055255;28;20196;-39
2022/06/30 00:27:00;;;;;;;6.72;5.90;;;18.90;99.90;;;;;;5055660;28;20289;-39
2022/06/30 00:29:26;;;;;;;9.25;5.80;;;18.90;99.90;;;;;;5072551;28;20196;-37
2022/06/30 00:31:52;;;;;;;7.65;5.50;;;18.90;99.90;;;;;;5072269;28;20188;-36
2022/06/30 00:34:17;;;;;;;7.10;5.78;;;18.80;99.90;;;;;;5071887;28;20199;-37
2022/06/30 00:36:43;;;;;;;6.97;5.45;;;18.70;99.90;;;;;;5077008;28;20184;-37
2022/06/30 00:39:10;;;;;;;6.15;5.55;;;18.70;99.90;;;;;;5055370;28;20210;-37
2022/06/30 00:41:40;;;;;;;7.03;6.32;;;18.60;99.90;;;;;;5055628;28;20177;-40
2022/06/30 00:44:07;;;;;;;9.65;5.90;;;18.60;99.90;;;;;;5072046;28;20192;-37
2022/06/30 00:46:34;;;;;;;6.25;5.68;;;18.70;99.90;;;;;;5055695;28;20194;-39
2022/06/30 00:49:00;;;;;;;6.00;5.40;;;18.60;99.90;;;;;;5055412;28;20179;-38
2022/06/30 00:51:26;;;;;;;7.72;6.25;;;18.60;99.90;;;;;;5055077;28;20181;-37
2022/06/30 00:53:54;;;;;;;8.07;5.60;;;18.60;99.90;;;;;;5072082;28;20242;-37
2022/06/30 00:56:21;;;;;;;6.13;5.50;;;18.50;99.90;;;;;;5072199;28;20169;-37
2022/06/30 00:58:48;;;;;;;6.72;5.57;;;18.50;99.90;;;;;;5055496;28;20228;-38
2022/06/30 05:27:29;;;;;;;8.53;7.03;;;17.90;99.90;;;;;;5052646;28;20251;-91
2022/06/30 05:29:55;;;;;;;10.00;7.30;;;18.00;99.90;;;;;;5054306;28;20189;-92
2022/06/30 05:32:21;;;;;;;11.70;7.18;;;18.10;99.90;;;;;;5049316;28;20233;-92
2022/06/30 05:34:47;;;;;;;9.90;7.03;;;18.20;99.90;;;;;;5048945;28;20206;-92
2022/06/30 05:37:13;;;;;;;11.02;6.78;;;18.40;99.90;;;;;;5055288;28;20214;-91
2022/06/30 05:39:39;;;;;;;7.85;7.05;;;18.50;99.90;;;;;;5055053;28;20174;-92
2022/06/30 05:42:05;;;;;;;7.80;6.28;;;18.60;99.90;;;;;;5054830;28;20198;-92
2022/06/30 05:44:32;;;;;;;9.60;6.72;;;18.70;99.90;;;;;;5048263;28;20182;-88
2022/06/30 05:46:58;;;;;;;10.23;6.78;;;18.80;99.90;;;;;;5052351;28;20193;-92
2022/06/30 05:49:25;;;;;;;13.48;6.65;;;18.90;99.90;;;;;;5054535;28;20174;-92
2022/06/30 05:51:51;;;;;;;9.02;6.13;;;19.10;99.90;;;;;;5055043;28;20202;-92
2022/06/30 05:54:18;;;;;;;7.97;7.03;;;19.20;99.90;;;;;;5038158;28;20196;-92
2022/06/30 05:56:45;;;;;;;7.65;6.80;;;19.30;99.90;;;;;;5056125;28;20182;-92
2022/06/30 05:59:11;;;;;;;7.68;6.55;;;19.40;99.90;;;;;;5037280;28;20217;-92
2022/06/30 06:01:38;;;;;;;8.00;6.80;;;19.50;99.90;;;;;;5037681;28;20198;-92
2022/06/30 06:04:04;;;;;;;9.38;7.22;;;19.60;99.90;;;;;;5037975;28;20182;-92
2022/06/30 06:06:30;;;;;;;7.32;6.63;;;19.70;99.90;;;;;;5037842;28;20185;-92
2022/06/30 06:08:55;;;;;;;8.30;6.85;;;19.80;99.90;;;;;;5037403;28;20178;-92
2022/06/30 06:11:21;;;;;;;11.82;7.45;;;19.90;99.90;;;;;;5037689;28;20275;-92
2022/06/30 06:13:47;;;;;;;12.40;7.18;;;20.00;99.90;;;;;;5034225;28;20185;-92
2022/06/30 06:16:13;;;;;;;8.05;6.10;;;20.20;99.90;;;;;;5034894;28;20301;-93
2022/06/30 06:18:39;;;;;;;7.38;6.43;;;20.40;99.90;;;;;;5044821;28;20210;-92
2022/06/30 06:21:05;;;;;;;10.05;6.35;;;20.60;99.90;;;;;;5032282;28;20209;-92
2022/06/30 06:23:31;;;;;;;7.57;6.43;;;20.80;99.90;;;;;;5048274;28;20178;-92
2022/06/30 06:25:57;;;;;;;9.20;6.35;;;21.00;99.90;;;;;;5056646;28;20277;-92
2022/06/30 06:31:07;;;;;;;7.00;6.00;;;21.20;99.90;;;;;;5031668;28;20199;-91
2022/06/30 06:33:34;;;;;;;9.15;6.72;;;21.40;99.90;;;;;;5048453;28;20281;-92
2022/06/30 06:36:01;;;;;;;9.20;6.50;;;21.60;99.90;;;;;;5041055;28;20178;-92
2022/06/30 06:38:27;;;;;;;9.55;6.40;;;21.60;99.90;;;;;;5051307;28;20213;-92
2022/06/30 06:40:53;;;;;;;8.90;5.88;;;21.70;99.90;;;;;;5069084;28;20198;-93
2022/06/30 06:43:19;;;;;;;8.77;6.43;;;21.80;99.90;;;;;;5040569;28;20174;-93
2022/06/30 06:45:45;;;;;;;7.50;6.07;;;22.00;99.90;;;;;;5057748;28;20170;-94
2022/06/30 06:48:11;;;;;;;6.40;5.90;;;22.00;99.90;;;;;;5041725;28;20182;-93
2022/06/30 06:50:37;;;;;;;9.27;6.43;;;22.20;99.90;;;;;;5067637;28;20188;-93
2022/06/30 06:53:03;;;;;;;7.05;5.55;;;22.40;99.90;;;;;;5051318;28;20182;-92
2022/06/30 06:55:30;;;;;;;10.02;6.03;;;22.50;99.90;;;;;;5050792;28;20188;-93
2022/06/30 06:57:56;;;;;;;7.10;6.13;;;22.60;99.90;;;;;;5051049;28;20300;-93
2022/06/30 07:00:22;;;;;;;7.38;6.20;;;22.70;99.90;;;;;;5051748;28;20221;-92
2022/06/30 07:02:48;;;;;;;6.50;5.47;;;22.80;99.90;;;;;;5052025;28;20205;-93
2022/06/30 07:05:14;;;;;;;6.55;5.82;;;22.90;99.90;;;;;;5036061;28;20170;-93
2022/06/30 07:07:40;;;;;;;6.90;5.25;;;23.10;99.90;;;;;;5036280;28;20178;-93
2022/06/30 07:10:08;;;;;;;7.80;5.60;;;23.30;99.90;;;;;;5053218;28;20178;-93
2022/06/30 07:12:37;;;;;;;10.10;5.75;;;23.30;99.90;;;;;;5052970;28;20221;-92
2022/06/30 07:15:03;;;;;;;8.05;5.85;;;23.20;99.90;;;;;;5052436;28;20185;-92
2022/06/30 07:17:34;;;;;;;6.40;5.70;;;23.30;99.90;;;;;;5052909;28;20297;-92
2022/06/30 07:20:00;;;;;;;6.35;5.70;;;23.30;99.90;;;;;;5051470;28;20225;-92
2022/06/30 07:22:40;;;;;;;7.60;5.97;;;23.40;99.90;;;;;;5060156;28;20229;-92
2022/06/30 07:25:08;;;;;;;6.25;5.60;;;23.50;99.90;;;;;;5069830;28;20215;-92
2022/06/30 07:27:34;;;;;;;5.93;5.30;;;23.60;99.90;;;;;;5035761;28;20216;-92
2022/06/30 07:30:03;;;;;;;5.72;5.22;;;23.80;99.90;;;;;;5069565;28;20192;-92
2022/06/30 07:32:30;;;;;;;5.18;4.72;;;23.80;99.90;;;;;;5069843;28;20193;-91
2022/06/30 07:34:56;;;;;;;6.05;5.45;;;24.00;99.90;;;;;;5035904;28;20174;-91
2022/06/30 07:37:22;;;;;;;6.35;5.72;;;24.20;99.90;;;;;;5051318;28;20237;-92
2022/06/30 07:39:48;;;;;;;7.00;4.95;;;24.30;99.90;;;;;;5051326;28;20235;-91
2022/06/30 07:42:14;;;;;;;6.13;5.40;;;24.30;99.90;;;;;;5050781;28;20231;-91
2022/06/30 07:44:40;;;;;;;7.68;5.20;;;24.50;99.90;;;;;;5051083;28;20178;-92
2022/06/30 07:47:06;;;;;;;5.53;4.95;;;24.50;99.90;;;;;;5051119;28;20174;-92
2022/06/30 07:49:32;;;;;;;5.85;5.32;;;24.70;99.90;;;;;;5051047;28;20181;-92
2022/06/30 07:51:58;;;;;;;7.35;5.70;;;24.90;99.90;;;;;;5051143;28;20217;-91
2022/06/30 07:54:24;;;;;;;7.53;5.22;;;24.80;99.90;;;;;;5050931;28;20189;-91
2022/06/30 07:56:50;;;;;;;7.32;5.03;;;24.90;99.90;;;;;;5050838;28;20182;-92
2022/06/30 07:59:16;;;;;;;5.50;4.72;;;25.10;99.90;;;;;;5051366;28;20209;-92
2022/06/30 08:01:42;;;;;;;6.70;5.20;;;25.30;99.90;;;;;;5051057;28;20210;-92
2022/06/30 08:04:09;;;;;;;8.05;5.30;;;25.50;99.90;;;;;;5050987;28;20174;-92
2022/06/30 08:06:35;;;;;;;7.95;5.15;;;25.60;99.90;;;;;;5051034;28;20194;-93
2022/06/30 08:09:01;;;;;;;6.55;5.03;;;25.70;99.90;;;;;;5054883;28;20178;-93
2022/06/30 08:11:28;;;;;;;5.65;4.70;;;25.80;99.90;;;;;;5053165;28;20201;-92
2022/06/30 08:13:54;;;;;;;7.55;5.13;;;25.80;99.90;;;;;;5036636;28;20174;-92
2022/06/30 08:16:20;;;;;;;5.80;4.97;;;25.70;99.90;;;;;;5031964;28;20241;-92
2022/06/30 08:18:52;;;;;;;6.57;5.30;;;25.80;99.90;;;;;;5071646;28;20212;-92
2022/06/30 08:21:27;;;;;;;5.55;4.78;;;26.00;99.90;;;;;;5055436;28;20198;-92
2022/06/30 08:23:54;;;;;;;5.57;5.07;;;26.30;99.90;;;;;;5054982;28;20177;-92
2022/06/30 08:26:20;;;;;;;5.63;4.90;;;26.40;99.90;;;;;;5043072;28;20197;-92
2022/06/30 08:28:47;;;;;;;5.53;4.47;;;26.50;99.90;;;;;;5071824;28;20186;-92
2022/06/30 08:31:15;;;;;;;5.97;5.47;;;26.70;99.90;;;;;;5037982;28;20278;-92
2022/06/30 08:33:42;;;;;;;5.53;5.03;;;26.90;99.90;;;;;;5071298;28;20277;-92
2022/06/30 08:36:08;;;;;;;7.43;5.10;;;27.00;99.90;;;;;;5070914;28;20193;-92
2022/06/30 08:38:34;;;;;;;6.78;4.80;;;27.20;99.90;;;;;;5057295;28;20297;-94
2022/06/30 08:43:45;;;;;;;5.32;4.60;;;27.20;99.90;;;;;;5054728;28;20192;-92
2022/06/30 08:46:15;;;;;;;5.45;4.97;;;27.20;99.90;;;;;;5037526;28;20182;-92
2022/06/30 08:48:42;;;;;;;4.82;4.43;;;27.40;99.90;;;;;;5038197;28;20181;-92
2022/06/30 08:51:08;;;;;;;4.82;4.35;;;27.60;99.90;;;;;;5038224;28;20563;-92
2022/06/30 08:53:51;;;;;;;5.50;4.97;;;27.70;99.90;;;;;;5038160;28;20188;-92
2022/06/30 08:56:18;;;;;;;6.20;5.00;;;27.70;99.90;;;;;;5038099;28;20240;-92
2022/06/30 08:58:45;;;;;;;4.85;4.35;;;27.90;99.90;;;;;;5038583;28;20209;-92
2022/06/30 09:01:11;;;;;;;6.05;4.18;;;28.10;99.90;;;;;;5038276;28;20331;-92
2022/06/30 09:03:38;;;;;;;5.82;4.30;;;28.40;99.90;;;;;;5039784;28;20186;-92
2022/06/30 09:06:05;;;;;;;5.20;3.70;;;28.60;99.90;;;;;;5041113;28;20221;-92
2022/06/30 09:08:31;;;;;;;3.70;3.40;;;28.80;99.90;;;;;;5054524;28;20186;-92
2022/06/30 09:10:57;;;;;;;4.40;3.25;;;28.70;99.90;;;;;;5054744;28;20221;-92
2022/06/30 09:13:24;;;;;;;4.65;3.35;;;28.70;99.90;;;;;;5038115;28;20189;-92
2022/06/30 09:15:51;;;;;;;4.60;3.55;;;28.90;99.90;;;;;;5038298;28;20196;-93
2022/06/30 09:18:27;;;;;;;4.28;3.40;;;28.80;99.90;;;;;;5054820;28;20216;-92
2022/06/30 09:20:54;;;;;;;4.18;3.78;;;28.80;99.90;;;;;;5054446;28;20197;-93
2022/06/30 09:23:30;;;;;;;5.60;4.40;;;29.10;99.90;;;;;;5054879;28;20178;-92
2022/06/30 09:25:59;;;;;;;7.07;4.03;;;29.00;99.90;;;;;;5054544;28;20170;-91
2022/06/30 09:28:44;;;;;;;6.55;4.00;;;29.10;99.90;;;;;;5057108;28;20213;-92
2022/06/30 09:31:31;;;;;;;7.00;3.97;;;29.40;99.90;;;;;;5035583;28;20313;-92
2022/06/30 09:34:23;;;;;;;4.85;3.97;;;29.50;99.90;;;;;;5039381;28;20247;-92
2022/06/30 09:36:53;;;;;;;3.90;3.55;;;29.50;99.90;;;;;;5040652;28;20217;-92
2022/06/30 09:39:43;;;;;;;6.03;3.90;;;29.80;99.90;;;;;;5017250;28;20328;-93
2022/06/30 09:42:09;;;;;;;6.75;3.80;;;29.50;99.90;;;;;;5053465;28;20206;-93
2022/06/30 09:44:38;;;;;;;5.40;3.45;;;29.50;99.90;;;;;;5037064;28;20179;-92
2022/06/30 09:47:10;;;;;;;7.72;3.72;;;29.60;99.90;;;;;;5040748;28;20181;-93
2022/06/30 09:49:47;;;;;;;4.80;3.42;;;29.60;99.90;;;;;;5055856;28;20186;-93
2022/06/30 09:52:27;;;;;;;5.40;3.25;;;29.60;99.90;;;;;;5053741;28;20206;-92
2022/06/30 09:55:09;;;;;;;6.13;3.78;;;29.90;99.90;;;;;;5039799;28;20195;-93
2022/06/30 09:57:44;;;;;;;4.53;3.55;;;30.20;99.90;;;;;;5033631;28;20238;-93
2022/06/30 10:00:24;;;;;;;5.30;3.15;;;30.20;99.90;;;;;;5033604;28;20273;-93
2022/06/30 10:03:05;;;;;;;5.18;3.40;;;30.30;99.90;;;;;;5043986;28;20194;-94
2022/06/30 10:05:50;;;;;;;5.72;3.47;;;30.50;99.90;;;;;;5055235;28;20178;-95
2022/06/30 10:08:30;;;;;;;3.88;3.50;;;30.70;99.90;;;;;;5054980;28;20228;-95
2022/06/30 10:10:57;;;;;;;4.43;3.45;;;30.90;99.90;;;;;;5054078;28;20202;-94
2022/06/30 10:13:24;;;;;;;6.25;4.10;;;30.90;99.90;;;;;;5053705;28;20238;-93
2022/06/30 10:15:57;;;;;;;4.55;3.60;;;30.90;99.90;;;;;;5055026;28;20203;-94
2022/06/30 10:18:25;;;;;;;4.50;3.53;;;30.80;99.90;;;;;;5054059;28;20297;-96
2022/06/30 10:20:58;;;;;;;6.45;4.03;;;30.70;99.90;;;;;;5054656;28;20195;-94
2022/06/30 10:23:25;;;;;;;4.78;3.35;;;30.90;99.90;;;;;;5057236;28;20181;-93
2022/06/30 10:25:54;;;;;;;5.93;3.50;;;31.10;99.90;;;;;;5056578;28;20178;-94
2022/06/30 10:28:22;;;;;;;6.28;3.92;;;31.20;99.90;;;;;;5056013;28;20187;-94
2022/06/30 10:31:17;;;;;;;4.93;3.90;;;31.40;99.90;;;;;;5056359;28;20183;-93
2022/06/30 10:34:13;;;;;;;4.60;3.30;;;31.40;99.90;;;;;;5055894;28;20183;-93
2022/06/30 10:37:10;;;;;;;5.90;3.63;;;31.40;99.90;;;;;;5057977;28;20193;-94
2022/06/30 10:42:41;;;;;;;5.60;4.18;;;31.30;99.90;;;;;;5049755;28;20210;-32
2022/06/30 10:45:27;;;;;;;6.88;3.88;;;31.50;99.90;;;;;;5033165;28;20186;-41
2022/06/30 10:48:03;;;;;;;5.35;3.75;;;31.50;99.90;;;;;;5013773;28;20182;-41
2022/06/30 10:50:35;;;;;;;5.65;3.92;;;31.70;99.90;;;;;;4997330;28;20181;-42
2022/06/30 10:55:54;;;;;;;6.03;4.05;;;32.10;99.90;;;;;;5028734;28;20220;-38
2022/06/30 10:58:21;;;;;;;5.63;3.72;;;32.30;99.90;;;;;;4997845;28;20210;-42
2022/06/30 11:00:50;;;;;;;6.10;3.50;;;32.30;99.90;;;;;;5014106;28;20178;-41
2022/06/30 11:03:33;;;;;;;5.03;3.90;;;32.20;99.90;;;;;;5026758;28;20197;-38
2022/06/30 11:06:13;;;;;;;4.45;3.75;;;32.40;99.90;;;;;;5017012;28;20182;-42
2022/06/30 11:08:39;;;;;;;4.50;4.10;;;32.20;99.90;;;;;;5017136;28;20186;-39
2022/06/30 11:11:27;;;;;;;6.72;4.10;;;31.80;99.90;;;;;;5015401;28;20186;-39
2022/06/30 11:14:06;;;;;;;6.65;4.13;;;32.00;99.90;;;;;;5013539;28;20208;-44
2022/06/30 11:16:35;;;;;;;5.90;4.07;;;32.10;99.90;;;;;;4999289;28;20183;-39
2022/06/30 11:19:04;;;;;;;5.00;4.28;;;32.20;99.90;;;;;;5022129;28;20198;-42
2022/06/30 11:21:31;;;;;;;4.55;3.75;;;32.40;99.90;;;;;;5005873;28;20709;-38
2022/06/30 11:24:01;;;;;;;7.28;3.80;;;32.70;99.90;;;;;;5022290;28;20197;-39
2022/06/30 11:29:17;;;;;;;5.50;3.92;;;33.00;99.90;;;;;;5046685;28;20177;-38
2022/06/30 11:31:44;;;;;;;6.82;4.32;;;32.90;99.90;;;;;;5015302;28;20175;-41
2022/06/30 11:34:12;;;;;;;4.22;3.67;;;33.00;99.90;;;;;;5021724;28;20179;-41
2022/06/30 11:36:40;;;;;;;5.40;4.20;;;33.10;99.70;;;;;;5006518;28;20195;-39
2022/06/30 11:39:17;;;;;;;8.45;3.45;;;33.00;99.90;;;;;;5022750;28;20312;-39
2022/06/30 11:44:37;;;;;;;6.93;4.05;;;32.70;99.90;;;;;;5023673;28;20177;-41
2022/06/30 11:47:10;;;;;;;6.95;3.83;;;32.80;99.90;;;;;;5005895;28;20171;-38
2022/06/30 11:49:44;;;;;;;4.35;3.47;;;32.30;99.90;;;;;;5021635;28;20175;-40
2022/06/30 11:52:20;;;;;;;5.93;3.97;;;32.30;99.90;;;;;;5004943;28;20196;-42
2022/06/30 11:54:49;;;;;;;4.85;3.60;;;32.30;99.90;;;;;;5031523;28;20217;-40
2022/06/30 11:57:16;;;;;;;6.57;4.25;;;32.40;99.40;;;;;;5032060;28;20178;-40
2022/06/30 11:59:54;;;;;;;6.20;3.88;;;32.80;99.90;;;;;;5034756;28;20201;-40
2022/06/30 12:02:20;;;;;;;5.13;3.75;;;33.10;99.90;;;;;;5019659;28;20202;-41
2022/06/30 12:04:53;;;;;;;6.72;4.00;;;33.30;99.90;;;;;;5023868;28;20185;-40
2022/06/30 12:07:22;;;;;;;6.88;3.92;;;33.40;99.50;;;;;;5023198;28;20209;-40
2022/06/30 12:09:51;;;;;;;5.75;3.78;;;33.20;98.80;;;;;;5040038;28;20182;-41
2022/06/30 12:12:26;;;;;;;4.50;3.47;;;33.10;99.80;;;;;;5038356;28;20219;-44
2022/06/30 12:14:58;;;;;;;4.25;3.38;;;33.20;98.30;;;;;;5045575;28;20177;-40
2022/06/30 12:17:29;;;;;;;7.25;4.18;;;33.30;98.20;;;;;;5042722;28;20179;-39
2022/06/30 12:20:05;;;;;;;5.43;3.83;;;33.30;99.70;;;;;;5019589;28;20182;-42
2022/06/30 12:22:34;;;;;;;5.53;3.78;;;33.50;99.40;;;;;;5043739;28;20210;-40
2022/06/30 12:25:01;;;;;;;5.57;4.00;;;33.80;98.80;;;;;;5028704;28;20178;-43
2022/06/30 12:27:44;;;;;;;3.88;3.58;;;33.40;98.90;;;;;;5041735;28;20182;-39
2022/06/30 12:30:31;;;;;;;6.53;3.90;;;33.30;99.90;;;;;;5028896;28;20223;-40
2022/06/30 12:33:00;;;;;;;5.88;4.22;;;32.90;98.70;;;;;;5025964;28;20256;-39
2022/06/30 12:35:30;;;;;;;5.30;3.58;;;33.00;98.70;;;;;;5024277;28;20177;-40
2022/06/30 12:37:56;;;;;;;4.28;3.88;;;33.40;99.90;;;;;;5033681;28;20205;-40
2022/06/30 12:40:23;;;;;;;4.82;3.40;;;33.70;99.30;;;;;;5047621;28;20171;-40
2022/06/30 12:42:57;;;;;;;5.72;3.92;;;33.90;99.20;;;;;;5044545;28;20252;-41
2022/06/30 12:46:00;;;;;;;5.57;3.80;;;34.20;98.30;;;;;;5042999;28;20205;-43
2022/06/30 12:48:43;;;;;;;8.23;4.00;;;34.50;97.70;;;;;;5026949;28;20186;-42
2022/06/30 12:51:15;;;;;;;4.30;3.88;;;34.40;96.30;;;;;;5044788;28;20214;-38
2022/06/30 12:53:42;;;;;;;4.63;3.95;;;34.00;96.60;;;;;;5042412;28;20329;-41
2022/06/30 12:56:17;;;;;;;5.32;4.03;;;33.80;97.20;;;;;;5029820;28;20262;-39
2022/06/30 12:59:01;;;;;;;3.97;3.58;;;33.80;96.60;;;;;;5041329;28;20237;-39
2022/06/30 13:01:32;;;;;;;3.78;3.42;;;34.10;97.70;;;;;;5040593;28;20223;-43
2022/06/30 13:04:01;;;;;;;3.75;3.45;;;34.10;97.30;;;;;;5042506;28;20326;-40
2022/06/30 13:06:45;;;;;;;6.07;4.07;;;34.40;97.50;;;;;;5050475;28;20174;-43
2022/06/30 13:09:15;;;;;;;4.47;3.75;;;34.70;96.90;;;;;;5027211;28;20174;-43
2022/06/30 13:11:48;;;;;;;5.63;3.70;;;34.70;95.80;;;;;;5033362;28;20215;-38
2022/06/30 13:14:17;;;;;;;3.78;3.38;;;34.70;95.80;;;;;;5049193;28;20223;-38
2022/06/30 13:16:45;;;;;;;5.22;3.65;;;34.80;96.30;;;;;;5045559;28;20186;-39
2022/06/30 13:19:13;;;;;;;4.10;3.70;;;35.00;95.80;;;;;;5044468;28;20212;-39
2022/06/30 13:21:41;;;;;;;4.88;3.47;;;35.10;96.50;;;;;;5047953;28;20258;-40
2022/06/30 13:24:09;;;;;;;5.68;3.58;;;35.00;95.90;;;;;;5049678;28;20209;-37
2022/06/30 13:26:37;;;;;;;4.18;3.78;;;35.30;95.80;;;;;;5040502;28;20185;-42
2022/06/30 13:29:04;;;;;;;5.47;3.60;;;35.50;96.10;;;;;;5029330;28;20186;-38
2022/06/30 13:31:33;;;;;;;5.85;3.95;;;35.30;95.30;;;;;;5033785;28;20189;-39
2022/06/30 13:34:00;;;;;;;6.75;3.65;;;35.20;94.80;;;;;;5026853;28;20195;-39
2022/06/30 13:36:30;;;;;;;5.38;3.58;;;34.90;94.30;;;;;;5034869;28;20182;-39
2022/06/30 13:38:57;;;;;;;5.45;3.70;;;34.60;94.90;;;;;;5044173;28;20331;-42
2022/06/30 13:41:23;;;;;;;4.00;3.50;;;34.40;95.80;;;;;;5060762;28;20252;-37
2022/06/30 13:43:49;;;;;;;3.80;3.47;;;34.20;96.60;;;;;;5045380;28;20202;-41
2022/06/30 13:46:15;;;;;;;4.55;3.65;;;33.90;96.00;;;;;;5026273;28;20236;-39
2022/06/30 13:48:41;;;;;;;4.35;3.63;;;33.70;96.50;;;;;;5026349;28;20182;-39
2022/06/30 13:51:07;;;;;;;4.32;3.83;;;33.50;96.80;;;;;;5029650;28;20178;-39
2022/06/30 13:53:33;;;;;;;5.25;4.00;;;33.20;97.40;;;;;;5045032;28;20216;-39
2022/06/30 13:55:59;;;;;;;4.18;3.67;;;32.90;97.50;;;;;;5045293;28;20209;-42
2022/06/30 13:58:25;;;;;;;4.50;3.83;;;32.70;97.70;;;;;;5032993;28;20209;-38
2022/06/30 14:00:51;;;;;;;4.88;4.05;;;32.60;98.00;;;;;;5043117;28;20196;-41
2022/06/30 14:03:18;;;;;;;5.00;3.83;;;32.40;98.20;;;;;;5039573;28;20247;-37
2022/06/30 14:05:44;;;;;;;5.05;4.00;;;32.20;98.30;;;;;;5026157;28;20205;-38
2022/06/30 14:08:12;;;;;;;4.20;3.80;;;32.10;97.90;;;;;;5029990;28;20186;-39
2022/06/30 14:10:43;;;;;;;4.80;3.38;;;31.80;98.30;;;;;;5047157;28;20213;-36
2022/06/30 14:13:21;;;;;;;3.70;3.35;;;31.60;98.80;;;;;;5042245;28;20208;-38
2022/06/30 14:15:53;;;;;;;5.22;3.78;;;31.50;99.50;;;;;;5026856;28;20203;-39
2022/06/30 14:18:20;;;;;;;5.28;3.85;;;31.30;99.90;;;;;;5029188;28;20209;-39
2022/06/30 14:20:47;;;;;;;4.25;3.67;;;31.10;99.90;;;;;;5029079;28;20173;-41
2022/06/30 14:23:15;;;;;;;4.70;4.25;;;30.80;99.90;;;;;;5034189;28;20252;-39
2022/06/30 14:25:43;;;;;;;4.45;4.00;;;30.60;99.90;;;;;;5043857;28;20186;-40
2022/06/30 14:28:09;;;;;;;4.82;4.22;;;30.50;99.90;;;;;;5032027;28;20216;-38
2022/06/30 14:30:35;;;;;;;6.97;4.18;;;30.40;99.90;;;;;;5031925;28;20185;-39
2022/06/30 14:33:02;;;;;;;4.22;3.70;;;30.30;99.90;;;;;;5045636;28;20212;-37
2022/06/30 14:35:31;;;;;;;6.10;4.80;;;30.10;99.90;;;;;;5038753;28;20193;-38
2022/06/30 14:37:57;;;;;;;6.90;4.13;;;30.00;99.90;;;;;;5025129;28;20213;-40
2022/06/30 14:40:24;;;;;;;10.63;2.85;;;29.90;99.90;;;;;;5041329;28;20202;-38
2022/06/30 14:42:53;;;;;;;11.77;2.63;;;28.90;99.90;;;;;;5030548;28;20256;-36
2022/06/30 14:45:25;;;;;;;17.08;3.13;;;27.30;99.90;;;;;;5032192;28;20205;-36
2022/06/30 14:47:54;;;;;;;7.53;3.20;;;25.70;99.90;;;;;;5045884;28;20194;-35
2022/06/30 14:50:21;;;;;;;10.77;3.67;;;24.30;99.90;;;;;;5029229;28;20208;-37
2022/06/30 14:52:50;;;;;;;8.27;3.67;;;23.40;99.90;;;;;;5025723;28;20233;-34
2022/06/30 14:59:05;;;;;;;8.90;4.20;;;20.90;99.90;;;;;;5047716;28;20265;-36
2022/06/30 15:01:32;;;;;;;8.15;3.67;;;20.70;99.90;;;;;;5049139;28;20186;-35
2022/06/30 15:03:59;;;;;;;10.40;4.20;;;20.60;99.90;;;;;;5044567;28;20209;-36
2022/06/30 15:06:27;;;;;;;8.13;3.45;;;20.60;99.90;;;;;;5027445;28;20174;-35
2022/06/30 15:08:53;;;;;;;7.47;3.40;;;20.60;99.90;;;;;;5032383;28;20194;-36
2022/06/30 15:11:20;;;;;;;6.45;3.13;;;20.40;99.90;;;;;;5028173;28;20182;-39
2022/06/30 15:13:47;;;;;;;6.28;2.83;;;20.30;99.90;;;;;;5043122;28;20201;-39
2022/06/30 15:16:14;;;;;;;4.53;3.00;;;20.50;99.90;;;;;;5027075;28;20206;-35
2022/06/30 15:18:41;;;;;;;6.22;3.47;;;20.60;99.90;;;;;;5047931;28;20205;-35
2022/06/30 15:24:08;;;;;;;3.85;2.30;;;20.90;99.90;;;;;;5040588;28;20304;-35
2022/06/30 15:26:39;;;;;;;4.97;3.00;;;21.00;99.90;;;;;;5047634;28;20174;-37
2022/06/30 15:29:08;;;;;;;4.88;2.85;;;21.20;99.90;;;;;;5031960;28;20243;-37
2022/06/30 15:31:36;;;;;;;2.58;1.95;;;21.30;99.90;;;;;;5045270;28;20174;-35
2022/06/30 15:34:05;;;;;;;2.55;2.30;;;21.30;99.90;;;;;;5044705;28;20201;-35
2022/06/30 15:36:32;;;;;;;5.95;2.90;;;21.50;99.90;;;;;;5043282;28;20193;-34
2022/06/30 15:39:01;;;;;;;3.40;2.67;;;21.60;99.90;;;;;;5027588;28;20194;-36
2022/06/30 15:41:29;;;;;;;3.20;2.90;;;21.70;99.90;;;;;;5047464;28;20170;-36
2022/06/30 15:44:03;;;;;;;5.10;2.70;;;21.80;99.90;;;;;;5049019;28;20189;-39
2022/06/30 15:46:31;;;;;;;4.38;2.65;;;21.80;99.90;;;;;;5031429;28;20182;-35
2022/06/30 15:48:58;;;;;;;3.17;2.42;;;21.60;99.90;;;;;;5047687;28;20178;-38
2022/06/30 15:51:26;;;;;;;3.00;2.22;;;21.60;99.90;;;;;;5028918;28;20189;-35
2022/06/30 15:53:52;;;;;;;2.60;2.40;;;21.60;99.90;;;;;;5041829;28;20289;-35
2022/06/30 15:56:22;;;;;;;4.90;2.85;;;21.70;99.90;;;;;;5042197;28;20190;-36
2022/06/30 15:58:49;;;;;;;5.60;3.00;;;21.70;99.90;;;;;;5028234;28;20541;-35
2022/06/30 16:01:17;;;;;;;5.57;3.55;;;21.60;99.90;;;;;;5041316;28;20264;-35
2022/06/30 16:03:44;;;;;;;6.13;2.63;;;21.40;99.90;;;;;;5031128;28;20201;-35
2022/06/30 16:06:11;;;;;;;5.43;2.47;;;21.10;99.90;;;;;;5047280;28;20169;-34
2022/06/30 16:08:40;;;;;;;3.38;2.40;;;20.90;99.90;;;;;;5043883;28;20254;-35
2022/06/30 16:11:08;;;;;;;2.75;2.13;;;20.70;99.90;;;;;;5042965;28;20182;-37
2022/06/30 16:13:35;;;;;;;3.78;2.58;;;20.70;99.90;;;;;;5041583;28;20202;-37
2022/06/30 16:16:03;;;;;;;3.70;2.10;;;20.80;99.90;;;;;;5030870;28;20182;-35
2022/06/30 16:18:30;;;;;;;2.63;2.30;;;20.90;99.90;;;;;;5040015;28;20293;-37
2022/06/30 16:20:56;;;;;;;3.45;2.20;;;21.10;99.90;;;;;;5030044;28;20182;-35
2022/06/30 16:23:23;;;;;;;3.70;3.00;;;21.20;99.90;;;;;;5045032;28;20645;-38
2022/06/30 16:25:49;;;;;;;4.28;2.88;;;21.10;99.90;;;;;;5027443;28;20174;-37
2022/06/30 16:28:16;;;;;;;5.28;2.85;;;21.10;99.90;;;;;;5048072;28;20185;-36
2022/06/30 16:30:42;;;;;;;5.03;2.97;;;21.10;99.90;;;;;;5025402;28;20177;-35
2022/06/30 16:33:08;;;;;;;4.93;2.83;;;20.90;99.90;;;;;;5049469;28;20209;-36
2022/06/30 16:35:35;;;;;;;3.90;2.70;;;20.80;99.90;;;;;;5033106;28;20181;-36
2022/06/30 16:38:00;;;;;;;5.88;3.00;;;20.90;99.90;;;;;;5037676;28;20201;-35
2022/06/30 16:40:27;;;;;;;4.03;2.85;;;20.90;99.90;;;;;;5030179;28;20277;-34
2022/06/30 16:42:53;;;;;;;2.78;2.58;;;20.90;99.90;;;;;;5016525;28;20229;-35
2022/06/30 16:45:23;;;;;;;2.67;2.47;;;21.00;99.90;;;;;;5039324;28;20313;-37
2022/06/30 16:47:49;;;;;;;3.80;2.80;;;21.10;99.90;;;;;;5048499;28;20209;-38
2022/06/30 16:50:18;;;;;;;4.22;2.50;;;21.20;99.90;;;;;;5051699;28;20186;-35
2022/06/30 16:52:45;;;;;;;3.50;2.42;;;21.30;99.90;;;;;;5055529;28;20204;-41
2022/06/30 17:45:05;;;;;;;3.58;2.90;;;22.00;99.90;;;;;;5076560;28;20299;-93
2022/06/30 17:47:32;;;;;;;6.68;2.85;;;22.10;99.90;;;;;;5079943;28;20260;-94
2022/06/30 17:49:59;;;;;;;4.20;3.10;;;22.10;99.90;;;;;;5080536;28;20220;-94
2022/06/30 17:52:26;;;;;;;5.18;3.00;;;22.10;99.90;;;;;;5081644;28;20209;-94
2022/06/30 17:54:52;;;;;;;3.55;2.78;;;22.20;99.90;;;;;;5081692;28;20200;-94
2022/06/30 17:57:20;;;;;;;5.57;3.53;;;22.20;99.90;;;;;;5081048;28;20189;-95
2022/06/30 17:59:46;;;;;;;2.85;2.53;;;22.10;99.90;;;;;;5080857;28;20224;-94
2022/06/30 18:02:16;;;;;;;5.35;2.88;;;22.20;99.90;;;;;;5081659;28;20200;-94
2022/06/30 18:04:42;;;;;;;3.00;2.78;;;22.20;99.90;;;;;;5080980;28;20181;-94
2022/06/30 18:12:38;;;;;;;5.50;3.17;;;22.20;99.90;;;;;;5076439;28;20205;-94
2022/06/30 18:15:05;;;;;;;4.68;3.00;;;22.30;99.90;;;;;;5073628;28;20264;-93
2022/06/30 18:17:31;;;;;;;3.33;2.88;;;22.20;99.90;;;;;;5071908;28;20318;-93
2022/06/30 18:19:56;;;;;;;3.80;3.20;;;22.30;99.90;;;;;;5072041;28;20217;-94
2022/06/30 18:22:26;;;;;;;4.70;3.05;;;22.30;99.90;;;;;;5055491;28;20337;-92
2022/06/30 18:24:53;;;;;;;6.38;2.95;;;22.20;99.90;;;;;;5072186;28;20184;-93
2022/06/30 18:27:19;;;;;;;4.68;3.28;;;22.20;99.90;;;;;;5071683;28;20184;-93
2022/06/30 18:29:45;;;;;;;5.00;2.78;;;22.10;99.90;;;;;;5055014;28;20181;-92
2022/06/30 18:32:11;;;;;;;4.10;3.22;;;22.10;99.90;;;;;;5071515;28;20197;-93
2022/06/30 18:34:37;;;;;;;5.28;3.17;;;22.10;99.90;;;;;;5055097;28;20184;-92
2022/06/30 18:37:04;;;;;;;6.53;3.42;;;22.00;99.90;;;;;;5055431;28;20185;-87
2022/06/30 18:39:30;;;;;;;3.47;3.10;;;21.90;99.90;;;;;;5054872;28;20224;-93